Time;durP1;ratioP1;P1;durP2;ratioP2;P2;SDS_P1;SDS_P2;PMS_P1;PMS_P2;Temp;Humidity;BMP_temperature;BMP_pressure;BME280_temperature;BME280_humidity;BME280_pressure;Samples;Min_cycle;Max_cycle;Signal;HPM_P1;HPM_P2
2023/09/15 00:02:24;;;;;;;103.68;55.22;;;18.20;93.00;;;;;;4945398;28;98094;-85
2023/09/15 00:04:50;;;;;;;99.38;54.65;;;18.20;93.20;;;;;;4950076;28;96238;-83
2023/09/15 00:07:17;;;;;;;101.65;55.00;;;18.20;93.10;;;;;;4940449;28;95144;-83
2023/09/15 00:09:42;;;;;;;101.03;54.92;;;18.20;92.90;;;;;;4940314;28;97128;-83
2023/09/15 00:12:09;;;;;;;100.55;54.65;;;18.20;93.10;;;;;;4959889;28;97345;-89
2023/09/15 00:14:35;;;;;;;101.85;54.90;;;18.20;93.10;;;;;;4958581;28;94614;-82
2023/09/15 00:17:03;;;;;;;100.18;55.03;;;18.20;93.20;;;;;;4946342;28;94420;-84
2023/09/15 00:19:29;;;;;;;99.45;54.58;;;18.20;93.10;;;;;;4954267;28;97516;-84
2023/09/15 00:21:55;;;;;;;101.75;55.22;;;18.20;93.10;;;;;;4944854;28;97781;-82
2023/09/15 00:24:21;;;;;;;99.93;54.83;;;18.10;93.10;;;;;;4963754;28;95843;-82
2023/09/15 00:26:48;;;;;;;100.95;55.15;;;18.10;93.00;;;;;;4948505;28;94812;-83
2023/09/15 00:29:14;;;;;;;99.40;54.53;;;18.10;92.90;;;;;;4942221;28;99219;-85
2023/09/15 00:31:40;;;;;;;100.65;54.75;;;18.10;92.80;;;;;;4943683;28;98588;-83
2023/09/15 00:34:06;;;;;;;101.40;55.00;;;18.10;92.90;;;;;;4961758;28;95201;-84
2023/09/15 00:36:32;;;;;;;99.97;54.85;;;18.10;92.80;;;;;;4941274;28;94767;-84
2023/09/15 00:38:58;;;;;;;100.22;54.88;;;18.10;92.80;;;;;;4960134;28;94681;-84
2023/09/15 00:41:24;;;;;;;99.72;54.78;;;18.10;93.00;;;;;;4957440;28;95432;-82
2023/09/15 00:43:51;;;;;;;99.95;54.78;;;18.00;93.00;;;;;;4960298;28;94236;-84
2023/09/15 00:46:17;;;;;;;99.78;55.05;;;18.00;93.10;;;;;;4961088;28;94144;-83
2023/09/15 00:48:45;;;;;;;101.65;54.85;;;18.00;93.20;;;;;;4941159;28;98457;-83
2023/09/15 00:51:11;;;;;;;99.75;54.85;;;18.00;93.00;;;;;;4960187;28;95583;-83
2023/09/15 00:53:39;;;;;;;99.65;54.65;;;17.90;93.00;;;;;;4960160;28;95888;-83
2023/09/15 00:56:07;;;;;;;101.18;54.83;;;17.90;93.10;;;;;;4945950;28;94686;-83
2023/09/15 00:58:38;;;;;;;100.35;55.03;;;17.90;93.10;;;;;;4947112;28;97395;-84
2023/09/15 01:01:06;;;;;;;99.47;54.83;;;17.90;93.10;;;;;;4944955;28;98003;-85
2023/09/15 01:03:35;;;;;;;99.65;54.95;;;17.90;93.10;;;;;;4948556;28;95142;-83
2023/09/15 01:06:01;;;;;;;101.03;54.88;;;17.90;93.20;;;;;;4944432;28;95144;-83
2023/09/15 01:08:27;;;;;;;101.90;55.13;;;17.80;93.30;;;;;;4946001;28;98039;-83
2023/09/15 01:10:53;;;;;;;100.20;54.47;;;17.80;93.40;;;;;;4944331;28;98766;-83
2023/09/15 01:13:19;;;;;;;101.70;54.92;;;17.90;93.30;;;;;;4961080;28;95485;-83
2023/09/15 01:16:15;;;;;;;100.35;54.75;;;17.80;93.20;;;;;;4963846;28;96510;-82
2023/09/15 01:18:41;;;;;;;100.97;55.15;;;17.80;93.20;;;;;;4959649;28;96923;-82
2023/09/15 01:21:42;;;;;;;100.18;55.20;;;17.80;93.20;;;;;;4960224;28;98694;-82
2023/09/15 01:24:45;;;;;;;100.85;54.80;;;17.80;93.30;;;;;;4949393;28;96130;-83
2023/09/15 01:27:23;;;;;;;100.03;54.65;;;17.70;93.40;;;;;;4963057;28;95568;-83
2023/09/15 01:29:53;;;;;;;99.45;54.80;;;17.70;93.10;;;;;;4959942;28;95706;-83
2023/09/15 01:32:19;;;;;;;102.47;55.40;;;17.70;93.30;;;;;;4964349;28;94956;-86
2023/09/15 01:34:48;;;;;;;99.65;54.92;;;17.70;93.30;;;;;;4961014;28;94786;-83
2023/09/15 01:37:13;;;;;;;99.60;54.75;;;17.60;93.30;;;;;;4946897;28;93729;-82
2023/09/15 01:39:39;;;;;;;102.45;55.33;;;17.60;93.40;;;;;;4959405;28;94864;-82
2023/09/15 01:42:05;;;;;;;99.55;54.70;;;17.60;93.40;;;;;;4944219;28;98725;-85
2023/09/15 01:44:30;;;;;;;100.03;55.15;;;17.60;93.40;;;;;;4960916;28;95681;-82
2023/09/15 01:46:56;;;;;;;99.15;54.42;;;17.60;93.60;;;;;;4959736;28;94693;-83
2023/09/15 01:49:24;;;;;;;99.80;54.72;;;17.60;93.40;;;;;;4945892;28;97675;-83
2023/09/15 01:51:50;;;;;;;100.65;55.25;;;17.50;93.50;;;;;;4963328;28;95068;-84
2023/09/15 01:54:17;;;;;;;101.88;55.35;;;17.50;93.40;;;;;;4945736;28;94757;-85
2023/09/15 01:56:49;;;;;;;102.15;55.58;;;17.50;93.40;;;;;;4960858;28;95563;-82
2023/09/15 01:59:14;;;;;;;;;;;17.50;93.50;;;;;;4948570;28;98125;-83
2023/09/15 02:01:40;;;;;;;99.88;54.90;;;17.50;93.60;;;;;;4964200;28;94506;-82
2023/09/15 02:04:06;;;;;;;100.72;55.28;;;17.40;93.40;;;;;;4965457;28;94933;-86
2023/09/15 02:06:32;;;;;;;100.35;55.08;;;17.50;93.40;;;;;;4965895;28;94879;-85
2023/09/15 02:08:58;;;;;;;100.18;54.75;;;17.50;93.40;;;;;;4946340;28;99229;-84
2023/09/15 02:11:23;;;;;;;100.43;55.28;;;17.40;93.50;;;;;;4960546;28;95219;-83
2023/09/15 02:13:49;;;;;;;99.80;55.40;;;17.40;93.50;;;;;;4960285;28;95106;-85
2023/09/15 02:16:14;;;;;;;102.30;55.45;;;17.40;93.60;;;;;;4964057;28;94980;-85
2023/09/15 02:18:40;;;;;;;101.22;55.47;;;17.40;94.00;;;;;;4939349;28;97880;-84
2023/09/15 02:21:09;;;;;;;100.90;55.28;;;17.40;93.70;;;;;;4924499;28;95543;-81
2023/09/15 02:23:35;;;;;;;100.80;55.08;;;17.40;93.50;;;;;;4925052;28;94626;-84
2023/09/15 02:26:04;;;;;;;100.88;54.95;;;17.30;93.60;;;;;;4923123;28;94680;-84
2023/09/15 02:28:31;;;;;;;102.25;55.78;;;17.30;93.60;;;;;;4919978;28;98385;-84
2023/09/15 02:30:57;;;;;;;100.07;55.03;;;17.30;93.60;;;;;;4921497;28;97327;-83
2023/09/15 02:33:23;;;;;;;99.85;54.78;;;17.30;93.70;;;;;;4928293;28;98246;-84
2023/09/15 02:35:49;;;;;;;102.53;55.72;;;17.30;93.60;;;;;;4919560;28;95360;-82
2023/09/15 02:38:14;;;;;;;101.40;55.38;;;17.30;93.90;;;;;;4925336;28;98188;-83
2023/09/15 02:40:40;;;;;;;102.07;55.35;;;17.30;93.80;;;;;;4923774;28;94525;-84
2023/09/15 02:43:08;;;;;;;100.35;55.15;;;17.20;93.90;;;;;;4923932;28;95044;-82
2023/09/15 02:45:38;;;;;;;100.55;55.15;;;17.20;93.80;;;;;;4921051;28;94658;-83
2023/09/15 02:48:06;;;;;;;99.68;55.03;;;17.20;93.70;;;;;;4938968;28;96324;-84
2023/09/15 02:50:32;;;;;;;101.10;55.38;;;17.20;93.80;;;;;;4921827;28;94980;-83
2023/09/15 02:52:59;;;;;;;99.78;54.65;;;17.20;93.80;;;;;;4925304;28;94493;-84
2023/09/15 02:55:24;;;;;;;99.80;55.13;;;17.20;93.60;;;;;;4924332;28;94848;-83
2023/09/15 02:57:52;;;;;;;99.80;55.30;;;17.10;93.70;;;;;;4922784;28;96709;-83
2023/09/15 03:00:19;;;;;;;100.15;55.33;;;17.10;93.90;;;;;;4922966;28;95898;-84
2023/09/15 03:02:45;;;;;;;100.75;55.47;;;17.10;93.90;;;;;;4919873;28;95272;-82
2023/09/15 03:05:10;;;;;;;100.35;55.63;;;17.10;93.90;;;;;;4919741;28;94666;-84
2023/09/15 03:07:39;;;;;;;100.68;55.60;;;17.10;93.80;;;;;;4917723;28;96257;-82
2023/09/15 03:10:06;;;;;;;102.22;55.67;;;17.10;93.90;;;;;;4922305;28;99007;-83
2023/09/15 03:12:33;;;;;;;100.75;56.20;;;17.00;93.80;;;;;;4934367;28;95107;-82
2023/09/15 03:14:59;;;;;;;101.05;55.78;;;17.10;93.80;;;;;;4922392;28;95712;-83
2023/09/15 03:17:24;;;;;;;100.80;55.40;;;17.00;93.70;;;;;;4925183;28;95453;-85
2023/09/15 03:19:50;;;;;;;100.57;55.53;;;17.00;93.70;;;;;;4932146;28;97700;-85
2023/09/15 03:22:15;;;;;;;101.10;55.53;;;17.00;93.60;;;;;;4938134;28;95846;-83
2023/09/15 03:24:42;;;;;;;99.90;55.28;;;17.00;93.80;;;;;;4940017;28;95110;-84
2023/09/15 03:27:08;;;;;;;99.97;55.58;;;17.00;93.70;;;;;;4939460;28;98559;-83
2023/09/15 03:29:34;;;;;;;102.45;56.03;;;16.90;93.80;;;;;;4943361;28;95604;-83
2023/09/15 03:32:00;;;;;;;101.00;55.75;;;16.90;93.80;;;;;;4938566;28;96417;-82
2023/09/15 03:34:25;;;;;;;102.10;55.80;;;16.90;94.10;;;;;;4939040;28;94693;-83
2023/09/15 03:36:51;;;;;;;100.07;55.30;;;16.90;93.80;;;;;;4938007;28;100274;-82
2023/09/15 03:39:17;;;;;;;101.05;56.10;;;16.90;93.80;;;;;;4940128;28;97544;-85
2023/09/15 03:41:43;;;;;;;100.20;55.47;;;16.90;93.80;;;;;;4942365;28;94797;-86
2023/09/15 03:44:08;;;;;;;101.28;56.13;;;16.80;93.80;;;;;;4940163;28;94685;-84
2023/09/15 03:46:35;;;;;;;98.55;54.33;;;16.90;93.90;;;;;;4939149;28;100566;-82
2023/09/15 03:49:01;;;;;;;100.20;55.35;;;16.90;93.90;;;;;;4956895;28;98827;-82
2023/09/15 03:51:29;;;;;;;99.78;55.38;;;16.80;93.80;;;;;;4940667;28;94830;-85
2023/09/15 03:53:54;;;;;;;101.85;55.80;;;16.80;93.90;;;;;;4942513;28;94685;-83
2023/09/15 03:56:20;;;;;;;100.18;55.67;;;16.80;93.90;;;;;;4939453;28;95863;-83
2023/09/15 03:58:46;;;;;;;100.38;55.65;;;16.80;94.00;;;;;;4943924;28;95740;-84
2023/09/15 04:01:13;;;;;;;100.55;55.97;;;16.80;93.80;;;;;;4937261;28;95126;-85
2023/09/15 04:03:38;;;;;;;101.65;55.63;;;16.80;93.90;;;;;;4942270;28;96298;-83
2023/09/15 04:06:05;;;;;;;100.05;55.10;;;16.80;94.10;;;;;;4936538;28;94941;-83
2023/09/15 04:08:31;;;;;;;100.97;55.95;;;16.80;93.80;;;;;;4942195;28;97628;-82
2023/09/15 04:10:57;;;;;;;100.85;56.10;;;16.80;94.10;;;;;;4940445;28;95774;-83
2023/09/15 04:13:22;;;;;;;100.05;55.70;;;16.70;94.00;;;;;;4956162;28;96822;-82
2023/09/15 04:15:48;;;;;;;100.97;55.85;;;16.70;94.20;;;;;;4938903;28;97676;-85
2023/09/15 04:18:13;;;;;;;100.32;55.88;;;16.70;93.90;;;;;;4944073;28;97815;-88
2023/09/15 04:20:39;;;;;;;100.03;55.42;;;16.70;94.10;;;;;;4938351;28;95176;-84
2023/09/15 04:23:04;;;;;;;100.97;55.85;;;16.70;94.20;;;;;;4943575;28;95900;-84
2023/09/15 04:25:30;;;;;;;100.90;55.85;;;16.70;94.20;;;;;;4943092;28;95474;-85
2023/09/15 04:27:56;;;;;;;100.10;55.40;;;16.60;94.00;;;;;;4953533;28;97356;-82
2023/09/15 04:30:21;;;;;;;99.18;55.38;;;16.60;94.00;;;;;;4940192;28;94451;-82
2023/09/15 04:32:47;;;;;;;99.53;56.03;;;16.60;94.00;;;;;;4937143;28;94858;-84
2023/09/15 04:35:12;;;;;;;100.38;55.65;;;16.60;94.20;;;;;;4939471;28;98612;-83
2023/09/15 04:37:38;;;;;;;100.20;55.95;;;16.60;93.90;;;;;;4940606;28;97009;-82
2023/09/15 04:40:06;;;;;;;100.57;55.78;;;16.60;94.10;;;;;;4943025;28;94556;-84
2023/09/15 04:42:33;;;;;;;100.25;55.47;;;16.60;94.10;;;;;;4938861;28;94870;-83
2023/09/15 04:45:00;;;;;;;101.40;55.42;;;16.60;94.00;;;;;;4947404;28;98028;-86
2023/09/15 04:47:34;;;;;;;102.68;56.17;;;16.60;94.00;;;;;;4939728;28;99071;-82
2023/09/15 04:50:01;;;;;;;102.13;56.28;;;16.60;94.10;;;;;;4943154;28;94712;-84
2023/09/15 04:52:27;;;;;;;99.70;55.53;;;16.50;94.00;;;;;;4960098;28;95290;-85
2023/09/15 04:54:53;;;;;;;101.38;56.10;;;16.50;94.20;;;;;;4945966;28;96862;-83
2023/09/15 04:57:20;;;;;;;100.45;56.38;;;16.50;94.40;;;;;;4945613;28;95208;-84
2023/09/15 04:59:46;;;;;;;101.55;56.67;;;16.50;94.20;;;;;;4943214;28;95796;-83
2023/09/15 05:02:13;;;;;;;101.75;56.30;;;16.50;94.00;;;;;;4945261;28;95251;-83
2023/09/15 05:04:39;;;;;;;99.70;56.53;;;16.50;94.20;;;;;;4943213;28;97750;-83
2023/09/15 05:07:05;;;;;;;101.38;56.25;;;16.40;93.80;;;;;;4945068;28;95077;-84
2023/09/15 05:09:31;;;;;;;101.70;56.20;;;16.40;93.90;;;;;;4940504;28;95336;-82
2023/09/15 05:11:56;;;;;;;101.80;56.50;;;16.40;93.90;;;;;;4941864;28;95430;-87
2023/09/15 05:14:25;;;;;;;101.40;55.53;;;16.40;94.10;;;;;;4942936;28;98051;-82
2023/09/15 05:16:50;;;;;;;100.53;55.55;;;16.40;94.20;;;;;;4942823;28;98783;-84
2023/09/15 05:19:16;;;;;;;100.68;55.40;;;16.40;94.50;;;;;;4940160;28;95068;-81
2023/09/15 05:21:42;;;;;;;99.05;55.13;;;16.40;94.60;;;;;;4944662;28;95093;-82
2023/09/15 05:24:07;;;;;;;98.95;55.53;;;16.40;94.70;;;;;;4959194;28;99872;-81
2023/09/15 05:26:33;;;;;;;97.65;54.33;;;16.40;94.70;;;;;;4946016;28;95736;-85
2023/09/15 05:28:59;;;;;;;100.28;55.05;;;16.40;94.60;;;;;;4942783;28;96365;-81
2023/09/15 05:31:27;;;;;;;101.35;55.95;;;16.40;94.60;;;;;;4940382;28;95487;-81
2023/09/15 05:33:55;;;;;;;100.60;55.90;;;16.40;93.60;;;;;;4944061;28;95451;-81
2023/09/15 05:36:21;;;;;;;101.03;55.50;;;16.40;94.40;;;;;;4939499;28;95346;-83
2023/09/15 05:38:48;;;;;;;101.57;56.22;;;16.40;93.90;;;;;;4945522;28;94662;-82
2023/09/15 05:41:14;;;;;;;102.10;55.78;;;16.40;94.00;;;;;;4945275;28;94114;-82
2023/09/15 05:43:40;;;;;;;102.75;56.45;;;16.30;93.70;;;;;;4943731;28;96433;-82
2023/09/15 05:46:06;;;;;;;101.72;55.30;;;16.30;93.80;;;;;;4945270;28;95738;-81
2023/09/15 05:48:31;;;;;;;104.40;56.17;;;16.30;93.80;;;;;;4942531;28;96739;-82
2023/09/15 05:50:57;;;;;;;101.60;56.30;;;16.30;93.80;;;;;;4958960;28;94681;-81
2023/09/15 05:53:22;;;;;;;100.75;55.53;;;16.30;93.90;;;;;;4942849;28;95360;-83
2023/09/15 05:55:48;;;;;;;100.60;56.08;;;16.30;93.70;;;;;;4964339;28;100327;-82
2023/09/15 05:58:14;;;;;;;102.10;56.35;;;16.40;94.10;;;;;;4939812;28;95845;-81
2023/09/15 06:00:42;;;;;;;100.78;56.80;;;16.30;93.80;;;;;;4946082;28;96995;-81
2023/09/15 06:03:08;;;;;;;101.97;56.90;;;16.30;93.90;;;;;;4943238;28;95359;-83
2023/09/15 06:05:35;;;;;;;102.95;56.40;;;16.40;93.90;;;;;;4946776;28;95808;-83
2023/09/15 06:08:03;;;;;;;104.20;56.88;;;16.40;93.80;;;;;;4940587;28;94830;-85
2023/09/15 06:10:29;;;;;;;101.47;55.85;;;16.40;94.00;;;;;;4941882;28;94742;-82
2023/09/15 06:12:54;;;;;;;103.90;56.45;;;16.40;94.00;;;;;;4959639;28;98942;-83
2023/09/15 06:15:21;;;;;;;101.47;55.80;;;16.40;93.90;;;;;;4941947;28;100201;-82
2023/09/15 06:17:47;;;;;;;101.70;56.05;;;16.40;93.80;;;;;;4943455;28;94724;-82
2023/09/15 06:20:13;;;;;;;101.20;55.80;;;16.40;94.30;;;;;;4955351;28;95102;-82
2023/09/15 06:22:39;;;;;;;101.70;55.75;;;16.40;93.90;;;;;;4946483;28;98358;-82
2023/09/15 06:25:05;;;;;;;102.05;56.17;;;16.40;94.50;;;;;;4959647;28;95197;-84
2023/09/15 06:27:33;;;;;;;101.30;55.75;;;16.40;94.70;;;;;;4964417;28;94753;-83
2023/09/15 06:29:59;;;;;;;100.25;55.92;;;16.40;94.10;;;;;;4965395;28;94162;-83
2023/09/15 06:32:24;;;;;;;102.68;56.00;;;16.50;94.10;;;;;;4961735;28;98339;-82
2023/09/15 06:34:50;;;;;;;101.47;56.00;;;16.40;94.10;;;;;;4957192;28;97808;-83
2023/09/15 06:37:16;;;;;;;100.85;56.13;;;16.50;94.00;;;;;;4963568;28;95335;-81
2023/09/15 06:39:42;;;;;;;100.18;55.38;;;16.50;94.00;;;;;;4944825;28;95528;-83
2023/09/15 06:42:10;;;;;;;97.40;53.97;;;16.50;94.50;;;;;;4962244;28;94835;-85
2023/09/15 06:44:37;;;;;;;101.93;56.22;;;16.50;94.30;;;;;;4943987;28;97337;-82
2023/09/15 06:47:03;;;;;;;102.15;55.33;;;16.60;94.30;;;;;;4944498;28;95821;-83
2023/09/15 06:49:30;;;;;;;98.45;53.95;;;16.60;94.20;;;;;;4946949;28;94820;-82
2023/09/15 06:51:56;;;;;;;100.78;55.45;;;16.60;94.50;;;;;;4944569;28;99246;-81
2023/09/15 06:54:21;;;;;;;100.75;55.33;;;16.60;94.40;;;;;;4963737;28;95091;-82
2023/09/15 06:56:50;;;;;;;102.18;56.28;;;16.70;94.30;;;;;;4960718;28;95001;-82
2023/09/15 06:59:16;;;;;;;99.25;54.60;;;16.70;94.00;;;;;;4960847;28;94694;-82
2023/09/15 07:01:41;;;;;;;100.38;55.42;;;16.70;95.00;;;;;;4959909;28;95864;-83
2023/09/15 07:04:07;;;;;;;99.53;55.10;;;16.70;93.80;;;;;;4945009;28;98542;-83
2023/09/15 07:06:33;;;;;;;97.97;54.20;;;16.70;94.00;;;;;;4964665;28;96056;-83
2023/09/15 07:08:58;;;;;;;97.38;53.55;;;16.80;94.50;;;;;;4959727;28;95062;-86
2023/09/15 07:11:24;;;;;;;99.57;55.13;;;16.80;94.70;;;;;;4939841;28;98354;-82
2023/09/15 07:13:50;;;;;;;98.60;54.20;;;16.80;94.20;;;;;;4963602;28;95123;-82
2023/09/15 07:16:15;;;;;;;97.40;53.85;;;16.90;94.50;;;;;;4948015;28;94505;-82
2023/09/15 07:18:41;;;;;;;97.97;54.58;;;16.90;94.40;;;;;;4951150;28;95767;-82
2023/09/15 07:21:07;;;;;;;97.40;53.95;;;16.90;94.30;;;;;;4945772;28;95414;-83
2023/09/15 07:23:32;;;;;;;98.13;54.28;;;17.00;94.70;;;;;;4939829;28;98533;-83
2023/09/15 07:25:59;;;;;;;97.10;53.45;;;17.00;94.30;;;;;;4945149;28;96398;-83
2023/09/15 07:28:25;;;;;;;97.40;53.22;;;17.10;94.50;;;;;;4935402;28;94850;-83
2023/09/15 07:30:50;;;;;;;97.05;53.28;;;17.10;94.70;;;;;;4943048;28;98358;-83
2023/09/15 07:33:16;;;;;;;96.57;53.22;;;17.10;95.40;;;;;;4937756;28;95141;-84
2023/09/15 07:35:41;;;;;;;97.28;53.65;;;17.20;95.20;;;;;;4942106;28;95207;-83
2023/09/15 07:38:07;;;;;;;97.00;53.40;;;17.20;95.70;;;;;;4940676;28;96208;-83
2023/09/15 07:40:34;;;;;;;100.70;54.50;;;17.20;94.30;;;;;;4940989;28;95117;-86
2023/09/15 07:42:59;;;;;;;97.30;53.80;;;17.20;93.80;;;;;;4939560;28;99639;-83
2023/09/15 07:45:26;;;;;;;96.95;53.42;;;17.30;94.60;;;;;;4939598;28;94564;-84
2023/09/15 07:47:51;;;;;;;97.97;53.65;;;17.40;94.30;;;;;;4938206;28;96261;-84
2023/09/15 07:50:17;;;;;;;101.47;53.75;;;17.40;95.80;;;;;;4935160;28;99029;-83
2023/09/15 07:52:45;;;;;;;97.25;53.63;;;17.50;94.60;;;;;;4941065;28;95958;-83
2023/09/15 07:55:11;;;;;;;97.45;53.78;;;17.50;93.80;;;;;;4937809;28;95922;-83
2023/09/15 07:57:38;;;;;;;97.03;53.58;;;17.50;93.80;;;;;;4944356;28;95219;-84
2023/09/15 08:00:10;;;;;;;97.43;53.75;;;17.60;94.50;;;;;;4942371;28;97962;-82
2023/09/15 08:02:36;;;;;;;97.22;53.65;;;17.60;94.30;;;;;;4939632;28;99096;-82
2023/09/15 08:05:02;;;;;;;99.68;54.20;;;17.70;94.00;;;;;;4938028;28;94615;-85
2023/09/15 08:07:28;;;;;;;97.00;53.50;;;17.70;92.90;;;;;;4943698;28;94073;-82
2023/09/15 08:09:56;;;;;;;97.32;53.60;;;17.70;94.00;;;;;;4941298;28;95205;-82
2023/09/15 08:12:23;;;;;;;98.45;53.75;;;17.80;93.30;;;;;;4939982;28;98051;-82
2023/09/15 08:14:49;;;;;;;98.22;53.88;;;17.80;94.70;;;;;;4940709;28;95673;-82
2023/09/15 08:17:15;;;;;;;98.60;53.60;;;17.90;93.80;;;;;;4958532;28;94784;-82
2023/09/15 08:19:41;;;;;;;98.72;53.70;;;17.90;94.00;;;;;;4953046;28;95148;-82
2023/09/15 08:22:07;;;;;;;98.97;54.22;;;17.90;93.60;;;;;;4942231;28;99239;-82
2023/09/15 08:24:32;;;;;;;98.00;53.65;;;17.90;93.20;;;;;;4964054;28;94944;-83
2023/09/15 08:26:58;;;;;;;98.38;53.78;;;18.00;93.80;;;;;;4959350;28;94546;-81
2023/09/15 08:29:23;;;;;;;97.68;53.55;;;18.00;93.30;;;;;;4944224;28;97937;-82
2023/09/15 08:31:49;;;;;;;97.85;53.42;;;18.10;93.30;;;;;;4939348;28;97787;-83
2023/09/15 08:34:15;;;;;;;98.25;53.78;;;18.10;94.40;;;;;;4938230;28;97126;-82
2023/09/15 08:36:41;;;;;;;98.55;53.75;;;18.10;94.20;;;;;;4943996;28;95593;-83
2023/09/15 08:39:07;;;;;;;98.43;53.80;;;18.20;93.00;;;;;;4959615;28;96359;-83
2023/09/15 08:41:39;;;;;;;97.78;53.40;;;18.30;92.60;;;;;;4960908;28;95620;-83
2023/09/15 08:44:07;;;;;;;97.80;53.45;;;18.30;94.10;;;;;;4953862;28;95509;-84
2023/09/15 08:46:35;;;;;;;99.22;53.58;;;18.40;93.70;;;;;;4945155;28;95760;-83
2023/09/15 08:49:01;;;;;;;100.40;53.67;;;18.40;93.30;;;;;;4965204;28;96168;-82
2023/09/15 08:51:29;;;;;;;99.38;53.95;;;18.40;92.60;;;;;;4966239;28;97806;-82
2023/09/15 08:53:56;;;;;;;98.00;53.53;;;18.50;91.80;;;;;;4944678;28;95640;-82
2023/09/15 08:56:23;;;;;;;97.82;53.55;;;18.50;93.50;;;;;;4963999;28;94162;-81
2023/09/15 08:58:48;;;;;;;98.55;53.70;;;18.60;92.80;;;;;;4944206;28;99382;-82
2023/09/15 09:01:18;;;;;;;99.65;53.53;;;18.60;92.20;;;;;;4962071;28;95143;-81
2023/09/15 09:03:44;;;;;;;98.15;53.58;;;18.60;92.90;;;;;;4943363;28;95479;-82
2023/09/15 09:06:12;;;;;;;100.05;54.22;;;18.70;93.60;;;;;;4962496;28;94691;-82
2023/09/15 09:08:46;;;;;;;98.93;53.72;;;18.80;91.70;;;;;;4945231;28;97754;-81
2023/09/15 09:11:13;;;;;;;98.72;53.63;;;18.80;92.20;;;;;;4957850;28;97900;-82
2023/09/15 09:13:39;;;;;;;98.93;53.70;;;18.80;92.90;;;;;;4959497;28;96118;-82
2023/09/15 09:16:07;;;;;;;98.50;53.42;;;18.90;93.10;;;;;;4942472;28;95730;-84
2023/09/15 09:18:33;;;;;;;98.93;53.80;;;19.00;92.40;;;;;;4941731;28;97992;-85
2023/09/15 09:21:02;;;;;;;100.43;53.75;;;19.00;92.40;;;;;;4943638;28;98805;-83
2023/09/15 09:23:27;;;;;;;100.57;53.97;;;19.10;92.40;;;;;;4960570;28;95802;-82
2023/09/15 09:25:53;;;;;;;99.20;54.03;;;19.10;91.40;;;;;;4963555;28;94633;-83
2023/09/15 09:28:19;;;;;;;99.43;53.97;;;19.10;91.80;;;;;;4957904;28;96759;-82
2023/09/15 09:30:44;;;;;;;100.35;54.00;;;19.20;92.20;;;;;;4961553;28;98567;-83
2023/09/15 09:33:12;;;;;;;100.82;54.15;;;19.20;91.60;;;;;;4961098;28;95004;-82
2023/09/15 09:35:37;;;;;;;100.55;54.38;;;19.30;92.00;;;;;;4964345;28;95127;-83
2023/09/15 09:38:04;;;;;;;100.22;54.13;;;19.30;91.40;;;;;;4945286;28;97395;-82
2023/09/15 09:40:31;;;;;;;100.47;54.42;;;19.30;91.50;;;;;;4966299;28;98373;-82
2023/09/15 09:42:57;;;;;;;99.85;53.72;;;19.30;90.80;;;;;;4944030;28;95492;-85
2023/09/15 09:45:27;;;;;;;101.10;53.95;;;19.40;91.50;;;;;;4950376;28;93878;-82
2023/09/15 09:47:56;;;;;;;99.83;53.70;;;19.50;91.20;;;;;;4962871;28;95253;-83
2023/09/15 09:50:22;;;;;;;100.55;54.20;;;19.50;91.50;;;;;;4959703;28;97290;-83
2023/09/15 09:52:49;;;;;;;99.80;53.88;;;19.60;91.20;;;;;;4963786;28;95649;-82
2023/09/15 09:55:15;;;;;;;100.70;54.20;;;19.70;91.00;;;;;;4942548;28;94862;-81
2023/09/15 09:57:41;;;;;;;100.82;54.40;;;19.70;91.00;;;;;;4965287;28;98354;-81
2023/09/15 10:00:11;;;;;;;99.60;53.85;;;19.80;90.90;;;;;;4963469;28;94616;-83
2023/09/15 10:02:40;;;;;;;100.38;54.30;;;19.80;90.70;;;;;;4962293;28;94984;-82
2023/09/15 10:05:06;;;;;;;100.82;54.20;;;19.80;90.60;;;;;;4948287;28;95014;-82
2023/09/15 10:07:32;;;;;;;101.03;54.45;;;19.90;90.30;;;;;;4943300;28;97747;-83
2023/09/15 10:09:59;;;;;;;101.53;54.00;;;20.00;90.30;;;;;;4963084;28;99880;-82
2023/09/15 10:12:25;;;;;;;101.15;54.53;;;20.00;90.20;;;;;;4943990;28;94667;-82
2023/09/15 10:14:52;;;;;;;100.90;54.28;;;20.00;89.60;;;;;;4961864;28;94187;-81
2023/09/15 10:17:20;;;;;;;100.68;54.40;;;20.10;90.10;;;;;;4945386;28;99337;-82
2023/09/15 10:19:50;;;;;;;102.07;54.88;;;20.10;89.90;;;;;;4960866;28;95885;-81
2023/09/15 10:22:17;;;;;;;101.03;54.40;;;20.20;89.40;;;;;;4962461;28;96112;-82
2023/09/15 10:24:47;;;;;;;101.43;54.58;;;20.20;89.50;;;;;;4948425;28;95288;-82
2023/09/15 10:27:14;;;;;;;101.80;54.40;;;20.30;89.50;;;;;;4940554;28;98527;-82
2023/09/15 10:29:44;;;;;;;101.88;54.67;;;20.30;89.20;;;;;;4959567;28;96259;-82
2023/09/15 10:32:15;;;;;;;102.82;54.72;;;20.40;88.60;;;;;;4945463;28;94726;-82
2023/09/15 10:34:41;;;;;;;101.93;54.55;;;20.40;88.70;;;;;;4956487;28;95249;-84
2023/09/15 10:37:09;;;;;;;101.63;54.78;;;20.50;88.30;;;;;;4955046;28;95349;-83
2023/09/15 10:39:40;;;;;;;101.95;54.78;;;20.50;87.80;;;;;;4939875;28;98026;-83
2023/09/15 10:42:07;;;;;;;;;;;20.60;87.80;;;;;;4958919;28;95607;-84
2023/09/15 10:44:32;;;;;;;102.38;54.72;;;20.60;87.50;;;;;;4962176;28;94750;-86
2023/09/15 10:46:59;;;;;;;100.55;53.88;;;20.70;87.20;;;;;;4965339;28;96632;-81
2023/09/15 10:49:25;;;;;;;101.93;54.63;;;20.70;87.20;;;;;;4961228;28;95327;-82
2023/09/15 10:51:58;;;;;;;102.07;54.30;;;20.70;87.00;;;;;;4967668;28;95043;-82
2023/09/15 10:54:32;;;;;;;101.72;54.30;;;20.70;87.00;;;;;;4959719;28;94906;-83
2023/09/15 10:56:59;;;;;;;102.30;54.72;;;20.70;86.70;;;;;;4956323;28;96307;-84
2023/09/15 10:59:26;;;;;;;102.07;54.80;;;20.80;86.50;;;;;;4965640;28;97728;-82
2023/09/15 11:01:53;;;;;;;102.78;54.78;;;20.80;86.20;;;;;;4945337;28;94332;-82
2023/09/15 11:04:21;;;;;;;101.30;54.53;;;20.90;86.40;;;;;;4944382;28;95542;-84
2023/09/15 11:06:52;;;;;;;102.00;54.55;;;20.90;86.00;;;;;;4945380;28;100076;-83
2023/09/15 11:09:18;;;;;;;;;;;20.90;85.70;;;;;;4945779;28;99596;-82
2023/09/15 11:11:47;;;;;;;101.97;54.70;;;21.00;85.60;;;;;;4966120;28;97156;-81
2023/09/15 11:14:22;;;;;;;103.70;54.67;;;21.00;85.20;;;;;;4957633;28;94760;-83
2023/09/15 11:16:50;;;;;;;102.13;54.47;;;21.10;85.10;;;;;;4960846;28;100208;-82
2023/09/15 11:19:17;;;;;;;102.63;54.83;;;21.10;85.00;;;;;;4941947;28;97841;-82
2023/09/15 11:21:47;;;;;;;102.28;55.03;;;21.10;84.60;;;;;;4949284;28;95752;-85
2023/09/15 11:24:13;;;;;;;101.55;54.53;;;21.20;84.20;;;;;;4958776;28;94428;-83
2023/09/15 11:26:45;;;;;;;102.35;54.83;;;21.20;84.30;;;;;;4941590;28;98310;-83
2023/09/15 11:29:12;;;;;;;102.53;55.10;;;21.20;84.30;;;;;;4963868;28;94619;-83
2023/09/15 11:31:38;;;;;;;103.93;54.92;;;21.20;84.10;;;;;;4938898;28;96824;-83
2023/09/15 11:34:05;;;;;;;102.47;55.08;;;21.30;83.90;;;;;;4960788;28;95620;-82
2023/09/15 11:36:35;;;;;;;103.70;55.35;;;21.40;83.60;;;;;;4940029;28;98768;-81
2023/09/15 11:39:10;;;;;;;102.53;54.63;;;21.40;83.60;;;;;;4944851;28;97946;-82
2023/09/15 11:41:37;;;;;;;103.28;54.90;;;21.40;83.50;;;;;;4942348;28;94681;-81
2023/09/15 11:44:06;;;;;;;102.45;54.88;;;21.40;83.30;;;;;;4939755;28;94524;-82
2023/09/15 11:46:39;;;;;;;103.20;55.15;;;21.50;82.80;;;;;;4942832;28;97760;-83
2023/09/15 11:49:06;;;;;;;103.38;55.13;;;21.50;82.80;;;;;;4958186;28;97847;-87
2023/09/15 11:51:34;;;;;;;103.30;55.03;;;21.50;83.10;;;;;;4942175;28;95219;-81
2023/09/15 11:53:59;;;;;;;105.20;55.35;;;21.60;83.60;;;;;;4943664;28;94809;-81
2023/09/15 11:56:29;;;;;;;103.38;55.08;;;21.50;82.40;;;;;;4946954;28;99551;-83
2023/09/15 11:58:54;;;;;;;102.75;55.05;;;21.60;82.00;;;;;;4961111;28;95629;-81
2023/09/15 12:01:21;;;;;;;103.93;55.20;;;21.70;82.10;;;;;;4959869;28;94824;-82
2023/09/15 12:03:52;;;;;;;103.32;55.28;;;21.70;81.40;;;;;;4962503;28;95371;-82
2023/09/15 12:06:19;;;;;;;103.43;55.17;;;21.80;81.80;;;;;;4958595;28;94964;-81
2023/09/15 12:08:47;;;;;;;103.82;55.38;;;21.80;82.00;;;;;;4961246;28;97804;-82
2023/09/15 12:11:14;;;;;;;104.43;55.28;;;21.80;82.20;;;;;;4940602;28;94781;-84
2023/09/15 12:13:41;;;;;;;104.53;55.63;;;21.80;80.80;;;;;;4960615;28;93694;-82
2023/09/15 12:16:06;;;;;;;105.03;55.40;;;21.90;81.30;;;;;;4939124;28;98311;-83
2023/09/15 12:18:39;;;;;;;103.93;55.38;;;21.90;81.10;;;;;;4962255;28;96075;-85
2023/09/15 12:21:12;;;;;;;104.07;55.10;;;21.90;81.20;;;;;;4948297;28;95962;-81